createdAt,value
2019-03-06T00:00:14.245Z,86.30
2019-03-06T00:01:14.229Z,85.47
2019-03-06T00:02:14.236Z,85.36
2019-03-06T00:03:14.206Z,85.16
2019-03-06T00:04:14.203Z,85.36
2019-03-06T00:05:14.187Z,85.47
2019-03-06T00:06:17.008Z,85.68
2019-03-06T00:07:14.219Z,85.20
2019-03-06T00:08:14.154Z,86.24
2019-03-06T00:09:14.151Z,86.24
2019-03-06T00:10:14.138Z,86.13
2019-03-06T00:11:14.123Z,86.13
2019-03-06T00:12:14.111Z,85.47
2019-03-06T00:13:14.116Z,84.89
2019-03-06T00:14:14.095Z,84.89
2019-03-06T00:15:14.085Z,85.30
2019-03-06T00:16:14.074Z,85.10
2019-03-06T00:17:14.062Z,85.36
2019-03-06T00:18:14.094Z,84.84
2019-03-06T00:19:14.038Z,85.47
2019-03-06T00:20:14.027Z,85.05
2019-03-06T00:21:14.020Z,84.53
2019-03-06T00:22:14.007Z,83.91
2019-03-06T00:23:14.000Z,84.33
2019-03-06T00:24:14.007Z,84.53
2019-03-06T00:25:13.974Z,84.39
2019-03-06T00:26:13.968Z,83.81
2019-03-06T00:27:13.958Z,84.01
2019-03-06T00:28:13.952Z,83.60
2019-03-06T00:29:13.944Z,83.70
2019-03-06T00:30:13.928Z,83.70
2019-03-06T00:31:13.910Z,83.70
2019-03-06T00:32:13.909Z,83.70
2019-03-06T00:33:13.890Z,84.22
2019-03-06T00:34:13.918Z,83.70
2019-03-06T00:35:13.867Z,84.01
2019-03-06T00:36:13.859Z,83.95
2019-03-06T00:37:13.852Z,83.91
2019-03-06T00:38:13.838Z,84.01
2019-03-06T00:39:13.826Z,83.70
2019-03-06T00:40:13.846Z,84.01
2019-03-06T00:41:13.818Z,83.87
2019-03-06T00:42:13.794Z,83.18
2019-03-06T00:43:13.788Z,83.36
2019-03-06T00:44:13.777Z,82.98
2019-03-06T00:45:13.762Z,82.87
2019-03-06T00:46:13.765Z,83.08
2019-03-06T00:47:13.741Z,82.73
2019-03-06T00:48:13.729Z,83.18
2019-03-06T00:49:13.732Z,82.67
2019-03-06T00:50:13.715Z,82.87
2019-03-06T00:51:13.740Z,83.18
2019-03-06T00:52:13.693Z,83.08
2019-03-06T00:53:13.682Z,82.98
2019-03-06T00:54:13.670Z,83.29
2019-03-06T00:55:13.661Z,83.12
2019-03-06T00:56:13.652Z,83.18
2019-03-06T00:57:13.657Z,83.08
2019-03-06T00:58:13.623Z,83.08
2019-03-06T00:59:13.619Z,82.87
2019-03-06T01:00:13.616Z,82.87
2019-03-06T01:01:13.617Z,82.98
2019-03-06T01:02:13.582Z,82.32
2019-03-06T01:03:13.577Z,82.35
2019-03-06T01:04:13.560Z,82.01
2019-03-06T01:05:13.550Z,82.11
2019-03-06T01:06:13.540Z,82.11
2019-03-06T01:07:13.543Z,82.11
2019-03-06T01:08:13.521Z,81.70
2019-03-06T01:09:13.508Z,81.49
2019-03-06T01:10:13.497Z,81.59
2019-03-06T01:11:13.493Z,81.18
2019-03-06T01:12:13.490Z,81.56
2019-03-06T01:13:13.469Z,81.35
2019-03-06T01:14:13.453Z,81.49
2019-03-06T01:15:13.442Z,81.35
2019-03-06T01:16:13.440Z,81.28
2019-03-06T01:17:13.438Z,81.18
2019-03-06T01:18:13.411Z,81.49
2019-03-06T01:19:13.401Z,81.59
2019-03-06T01:20:13.390Z,81.80
2019-03-06T01:21:13.385Z,81.90
2019-03-06T01:22:13.382Z,81.59
2019-03-06T01:23:13.364Z,81.80
2019-03-06T01:24:13.349Z,82.11
2019-03-06T01:25:13.337Z,82.21
2019-03-06T01:26:13.327Z,82.32
2019-03-06T01:27:13.329Z,82.11
2019-03-06T01:28:13.312Z,82.53
2019-03-06T01:29:13.298Z,82.87
2019-03-06T01:30:13.292Z,82.84
2019-03-06T01:31:13.279Z,82.63
2019-03-06T01:32:13.279Z,82.73
2019-03-06T01:33:13.254Z,82.84
2019-03-06T01:34:13.252Z,82.77
2019-03-06T01:35:13.236Z,82.77
2019-03-06T01:36:13.228Z,82.67
2019-03-06T01:37:13.242Z,83.29
2019-03-06T01:38:13.207Z,82.87
2019-03-06T01:39:13.195Z,83.50
2019-03-06T01:40:13.185Z,83.29
2019-03-06T01:41:13.171Z,83.08
2019-03-06T01:42:13.163Z,83.18
2019-03-06T01:43:13.169Z,83.50
2019-03-06T01:44:13.137Z,83.36
2019-03-06T01:45:13.146Z,83.08
2019-03-06T01:46:13.116Z,83.29
2019-03-06T01:47:13.107Z,83.29
2019-03-06T01:48:13.109Z,83.60
2019-03-06T01:49:13.098Z,84.22
2019-03-06T01:50:13.091Z,83.60
2019-03-06T01:51:13.064Z,83.39
2019-03-06T01:52:13.052Z,83.50
2019-03-06T01:53:13.046Z,83.29
2019-03-06T01:54:13.033Z,83.29
2019-03-06T01:55:13.034Z,83.18
2019-03-06T01:56:13.017Z,83.39
2019-03-06T01:57:12.999Z,83.18
2019-03-06T01:58:13.001Z,83.18
2019-03-06T01:59:12.983Z,83.81
2019-03-06T02:00:12.983Z,83.50
2019-03-06T02:01:12.962Z,83.74
2019-03-06T02:02:12.958Z,84.27
2019-03-06T02:03:12.945Z,84.05
2019-03-06T02:04:12.930Z,84.05
2019-03-06T02:05:12.920Z,84.37
2019-03-06T02:06:12.905Z,84.37
2019-03-06T02:07:12.894Z,84.37
2019-03-06T02:08:12.896Z,85.03
2019-03-06T02:09:12.872Z,84.82
2019-03-06T02:10:12.871Z,84.47
2019-03-06T02:11:12.852Z,84.51
2019-03-06T02:12:12.845Z,84.61
2019-03-06T02:13:12.844Z,84.72
2019-03-06T02:14:12.825Z,84.89
2019-03-06T02:15:12.808Z,85.13
2019-03-06T02:16:12.808Z,85.13
2019-03-06T02:17:12.790Z,85.65
2019-03-06T02:18:12.777Z,85.65
2019-03-06T02:19:12.782Z,86.21
2019-03-06T02:20:12.765Z,86.17
2019-03-06T02:21:12.750Z,86.11
2019-03-06T02:22:12.739Z,85.96
2019-03-06T02:23:12.764Z,85.96
2019-03-06T02:24:12.714Z,86.11
2019-03-06T02:25:12.710Z,86.21
2019-03-06T02:26:12.697Z,86.11
2019-03-06T02:27:12.687Z,86.42
2019-03-06T02:28:12.674Z,86.32
2019-03-06T02:29:12.674Z,86.52
2019-03-06T02:30:12.654Z,86.94
2019-03-06T02:31:12.684Z,86.63
2019-03-06T02:32:12.629Z,86.73
2019-03-06T02:33:12.624Z,87.15
2019-03-06T02:34:12.668Z,86.88
2019-03-06T02:35:12.599Z,86.94
2019-03-06T02:36:12.593Z,86.88
2019-03-06T02:37:12.592Z,86.73
2019-03-06T02:38:12.573Z,86.98
2019-03-06T02:39:12.558Z,86.73
2019-03-06T02:40:12.558Z,86.94
2019-03-06T02:41:12.535Z,86.52
2019-03-06T02:42:12.531Z,86.83
2019-03-06T02:43:12.515Z,86.63
2019-03-06T02:44:12.518Z,86.42
2019-03-06T02:45:12.508Z,86.63
2019-03-06T02:46:12.488Z,86.42
2019-03-06T02:47:12.478Z,86.98
2019-03-06T02:48:12.484Z,86.67
2019-03-06T02:49:12.452Z,86.94
2019-03-06T02:50:12.490Z,87.40
2019-03-06T02:51:12.437Z,87.19
2019-03-06T02:52:12.426Z,87.08
2019-03-06T02:53:12.420Z,87.29
2019-03-06T02:54:12.408Z,87.08
2019-03-06T02:55:12.398Z,86.77
2019-03-06T02:56:12.431Z,87.19
2019-03-06T02:57:12.375Z,87.29
2019-03-06T02:58:12.422Z,87.40
2019-03-06T02:59:12.362Z,87.50
2019-03-06T03:00:12.343Z,87.85
2019-03-06T03:01:12.334Z,87.81
2019-03-06T03:02:12.333Z,87.71
2019-03-06T03:03:12.311Z,88.43
2019-03-06T03:04:12.297Z,88.54
2019-03-06T03:05:12.316Z,88.48
2019-03-06T03:06:12.283Z,88.54
2019-03-06T03:07:12.289Z,88.02
2019-03-06T03:08:12.256Z,88.54
2019-03-06T03:09:12.246Z,88.54
2019-03-06T03:10:12.240Z,87.81
2019-03-06T03:11:12.231Z,87.81
2019-03-06T03:12:12.228Z,87.96
2019-03-06T03:13:12.215Z,88.12
2019-03-06T03:14:12.200Z,88.37
2019-03-06T03:15:12.193Z,88.58
2019-03-06T03:16:12.180Z,88.33
2019-03-06T03:17:12.178Z,88.33
2019-03-06T03:18:12.157Z,88.23
2019-03-06T03:19:12.146Z,89.00
2019-03-06T03:20:12.148Z,88.79
2019-03-06T03:21:12.126Z,88.85
2019-03-06T03:22:12.116Z,88.79
2019-03-06T03:23:12.106Z,89.00
2019-03-06T03:24:12.105Z,89.00
2019-03-06T03:25:12.093Z,89.10
2019-03-06T03:26:12.075Z,88.79
2019-03-06T03:27:12.077Z,89.10
2019-03-06T03:28:12.054Z,88.79
2019-03-06T03:29:12.050Z,89.10
2019-03-06T03:30:12.073Z,88.54
2019-03-06T03:31:12.029Z,89.20
2019-03-06T03:32:12.017Z,89.20
2019-03-06T03:33:12.021Z,89.52
2019-03-06T03:34:11.993Z,89.31
2019-03-06T03:35:11.983Z,89.52
2019-03-06T03:36:11.987Z,89.41
2019-03-06T03:37:11.962Z,89.73
2019-03-06T03:38:11.950Z,89.41
2019-03-06T03:39:11.949Z,89.62
2019-03-06T03:40:11.931Z,89.87
2019-03-06T03:41:11.954Z,90.29
2019-03-06T03:42:11.907Z,90.29
2019-03-06T03:43:11.895Z,90.25
2019-03-06T03:44:11.883Z,90.14
2019-03-06T03:45:11.883Z,90.14
2019-03-06T03:46:11.865Z,89.52
2019-03-06T03:47:11.903Z,89.41
2019-03-06T03:48:11.874Z,89.52
2019-03-06T03:49:11.844Z,89.52
2019-03-06T03:50:11.831Z,89.52
2019-03-06T03:51:11.812Z,89.73
2019-03-06T03:52:11.817Z,89.62
2019-03-06T03:53:11.797Z,89.20
2019-03-06T03:54:11.786Z,89.41
2019-03-06T03:55:11.777Z,89.83
2019-03-06T03:56:11.768Z,89.41
2019-03-06T03:57:11.748Z,89.83
2019-03-06T03:58:11.747Z,89.83
2019-03-06T03:59:11.729Z,89.52
2019-03-06T04:00:11.753Z,89.83
2019-03-06T04:01:11.714Z,89.73
2019-03-06T04:02:11.702Z,89.62
2019-03-06T04:03:11.700Z,90.04
2019-03-06T04:04:11.676Z,89.83
2019-03-06T04:05:11.667Z,89.62
2019-03-06T04:06:11.669Z,89.83
2019-03-06T04:07:11.645Z,89.10
2019-03-06T04:08:11.650Z,89.31
2019-03-06T04:09:11.624Z,89.37
2019-03-06T04:10:11.617Z,89.17
2019-03-06T04:11:11.615Z,88.75
2019-03-06T04:12:11.602Z,89.41
2019-03-06T04:13:11.596Z,89.27
2019-03-06T04:14:11.576Z,89.31
2019-03-06T04:15:11.573Z,89.31
2019-03-06T04:16:11.552Z,88.85
2019-03-06T04:17:11.552Z,89.27
2019-03-06T04:18:11.539Z,89.31
2019-03-06T04:19:11.542Z,89.94
2019-03-06T04:20:11.519Z,89.52
2019-03-06T04:21:11.514Z,89.73
2019-03-06T04:22:11.496Z,89.62
2019-03-06T04:23:11.487Z,89.52
2019-03-06T04:24:11.510Z,89.62
2019-03-06T04:25:11.460Z,89.62
2019-03-06T04:26:11.449Z,89.52
2019-03-06T04:27:11.444Z,89.58
2019-03-06T04:28:11.427Z,89.58
2019-03-06T04:29:11.420Z,89.48
2019-03-06T04:30:11.427Z,89.41
2019-03-06T04:31:11.402Z,89.20
2019-03-06T04:32:11.388Z,88.85
2019-03-06T04:33:11.384Z,89.37
2019-03-06T04:34:11.382Z,88.89
2019-03-06T04:35:11.358Z,88.68
2019-03-06T04:36:11.352Z,89.00
2019-03-06T04:37:11.346Z,88.85
2019-03-06T04:38:11.326Z,88.37
2019-03-06T04:39:11.327Z,88.33
2019-03-06T04:40:11.308Z,88.37
2019-03-06T04:41:11.299Z,88.64
2019-03-06T04:42:11.290Z,88.54
2019-03-06T04:43:11.278Z,88.43
2019-03-06T04:44:11.274Z,88.54
2019-03-06T04:45:11.277Z,88.58
2019-03-06T04:46:11.246Z,88.37
2019-03-06T04:47:11.238Z,87.75
2019-03-06T04:48:11.227Z,87.71
2019-03-06T04:49:11.216Z,87.75
2019-03-06T04:50:11.252Z,87.85
2019-03-06T04:51:13.113Z,88.37
2019-03-06T04:52:11.181Z,88.58
2019-03-06T04:53:11.174Z,88.31
2019-03-06T04:54:11.157Z,88.68
2019-03-06T04:55:11.147Z,88.79
2019-03-06T04:56:11.169Z,89.00
2019-03-06T04:57:11.130Z,88.89
2019-03-06T04:58:11.121Z,89.04
2019-03-06T04:59:11.108Z,88.93
2019-03-06T05:00:11.100Z,89.04
2019-03-06T05:01:11.097Z,89.25
2019-03-06T05:02:11.094Z,89.45
2019-03-06T05:03:11.071Z,89.76
2019-03-06T05:04:11.060Z,89.98
2019-03-06T05:05:11.044Z,89.56
2019-03-06T05:06:11.038Z,90.19
2019-03-06T05:07:11.034Z,90.91
2019-03-06T05:08:11.013Z,90.75
2019-03-06T05:09:11.008Z,90.75
2019-03-06T05:10:10.998Z,90.44
2019-03-06T05:11:10.996Z,90.70
2019-03-06T05:12:10.972Z,90.81
2019-03-06T05:13:10.961Z,90.70
2019-03-06T05:14:10.953Z,90.70
2019-03-06T05:15:18.859Z,90.75
2019-03-06T05:16:10.946Z,90.75
2019-03-06T05:17:10.926Z,90.85
2019-03-06T05:18:10.919Z,90.91
2019-03-06T05:19:10.903Z,90.85
2019-03-06T05:20:10.903Z,90.54
2019-03-06T05:21:10.887Z,90.95
2019-03-06T05:22:10.887Z,90.95
2019-03-06T05:23:10.863Z,90.95
2019-03-06T05:24:10.847Z,90.85
2019-03-06T05:25:10.836Z,90.95
2019-03-06T05:26:10.843Z,90.85
2019-03-06T05:27:10.829Z,90.54
2019-03-06T05:28:10.811Z,90.60
2019-03-06T05:29:10.804Z,90.75
2019-03-06T05:30:10.797Z,90.70
2019-03-06T05:31:10.779Z,90.85
2019-03-06T05:32:10.778Z,90.12
2019-03-06T05:33:10.759Z,90.95
2019-03-06T05:34:10.750Z,91.27
2019-03-06T05:35:10.745Z,91.16
2019-03-06T05:37:19.530Z,90.95
2019-03-06T05:38:19.494Z,90.75
2019-03-06T05:39:19.485Z,90.81
2019-03-06T05:40:19.485Z,90.70
2019-03-06T05:41:19.464Z,91.12
2019-03-06T05:42:19.454Z,90.81
2019-03-06T05:43:19.452Z,91.06
2019-03-06T05:44:19.436Z,90.85
2019-03-06T05:45:19.419Z,90.91
2019-03-06T05:46:19.406Z,90.75
2019-03-06T05:47:19.394Z,91.06
2019-03-06T05:48:19.386Z,91.16
2019-03-06T05:49:19.382Z,90.70
2019-03-06T05:50:20.429Z,90.85
2019-03-06T05:51:19.357Z,90.91
2019-03-06T05:52:19.342Z,90.91
2019-03-06T05:53:19.330Z,91.27
2019-03-06T05:54:19.336Z,91.27
2019-03-06T05:55:19.311Z,91.68
2019-03-06T05:56:19.345Z,91.68
2019-03-06T05:57:19.302Z,91.47
2019-03-06T05:58:19.329Z,91.43
2019-03-06T05:59:19.266Z,91.75
2019-03-06T06:00:19.262Z,91.33
2019-03-06T06:01:19.246Z,91.37
2019-03-06T06:02:19.243Z,91.85
2019-03-06T06:03:19.234Z,91.53
2019-03-06T06:04:19.231Z,91.96
2019-03-06T06:05:19.207Z,91.64
2019-03-06T06:06:19.192Z,91.75
2019-03-06T06:07:19.199Z,91.64
2019-03-06T06:08:19.174Z,91.75
2019-03-06T06:09:19.170Z,91.22
2019-03-06T06:10:19.156Z,91.53
2019-03-06T06:11:19.145Z,91.64
2019-03-06T06:12:19.142Z,91.75
2019-03-06T06:13:19.122Z,91.50
2019-03-06T06:14:19.115Z,91.60
2019-03-06T06:15:19.111Z,91.71
2019-03-06T06:16:19.096Z,91.71
2019-03-06T06:17:19.094Z,91.71
2019-03-06T06:18:19.063Z,91.18
2019-03-06T06:19:19.062Z,90.97
2019-03-06T06:20:19.067Z,91.18
2019-03-06T06:21:19.035Z,91.18
2019-03-06T06:22:19.043Z,91.18
2019-03-06T06:23:19.013Z,91.18
2019-03-06T06:24:19.004Z,91.08
2019-03-06T06:25:18.997Z,91.18
2019-03-06T06:26:19.021Z,91.18
2019-03-06T06:27:18.972Z,90.87
2019-03-06T06:28:18.965Z,90.87
2019-03-06T06:29:18.955Z,90.66
2019-03-06T06:30:18.944Z,90.83
2019-03-06T06:31:18.927Z,90.77
2019-03-06T06:32:18.927Z,91.18
2019-03-06T06:33:18.911Z,91.14
2019-03-06T06:34:18.900Z,90.83
2019-03-06T06:35:18.884Z,90.62
2019-03-06T06:36:18.882Z,90.52
2019-03-06T06:37:18.875Z,90.62
2019-03-06T06:38:18.871Z,90.72
2019-03-06T06:39:18.844Z,90.52
2019-03-06T06:40:18.833Z,90.83
2019-03-06T06:41:18.830Z,90.93
2019-03-06T06:42:18.816Z,91.14
2019-03-06T06:43:18.807Z,91.10
2019-03-06T06:44:18.820Z,90.58
2019-03-06T06:45:18.786Z,90.79
2019-03-06T06:46:18.769Z,90.47
2019-03-06T06:47:18.763Z,90.23
2019-03-06T06:48:18.800Z,89.29
2019-03-06T06:49:18.737Z,88.77
2019-03-06T06:50:18.726Z,88.25
2019-03-06T06:51:18.721Z,88.35
2019-03-06T06:52:18.715Z,87.84
2019-03-06T06:53:18.700Z,87.07
2019-03-06T06:54:18.701Z,87.38
2019-03-06T06:55:18.679Z,87.17
2019-03-06T06:56:18.660Z,86.82
2019-03-06T06:57:18.671Z,86.61
2019-03-06T06:58:18.648Z,86.65
2019-03-06T06:59:18.646Z,86.55
2019-03-06T07:00:18.619Z,86.65
2019-03-06T07:01:18.618Z,86.30
2019-03-06T07:02:18.600Z,86.19
2019-03-06T07:03:18.596Z,85.95
2019-03-06T07:04:18.610Z,86.05
2019-03-06T07:05:18.567Z,85.50
2019-03-06T07:06:18.555Z,84.36
2019-03-06T07:07:18.549Z,85.14
2019-03-06T07:08:18.541Z,84.21
2019-03-06T07:09:18.528Z,84.52
2019-03-06T07:10:18.522Z,83.76
2019-03-06T07:11:18.507Z,83.24
2019-03-06T07:12:18.495Z,82.93
2019-03-06T07:13:18.487Z,82.37
2019-03-06T07:14:18.476Z,81.96
2019-03-06T07:15:18.472Z,81.71
2019-03-06T07:16:18.448Z,80.68
2019-03-06T07:17:18.439Z,80.74
2019-03-06T07:18:18.431Z,79.98
2019-03-06T07:19:18.420Z,79.98
2019-03-06T07:20:18.446Z,79.36
2019-03-06T07:21:18.399Z,78.64
2019-03-06T07:22:18.392Z,79.02
2019-03-06T07:23:18.377Z,78.19
2019-03-06T07:24:18.366Z,77.98
2019-03-06T07:25:18.356Z,79.12
2019-03-06T07:26:18.350Z,78.36
2019-03-06T07:27:18.333Z,78.46
2019-03-06T07:28:18.325Z,78.42
2019-03-06T07:29:18.308Z,77.50
2019-03-06T07:30:18.302Z,76.32
2019-03-06T07:31:18.296Z,76.39
2019-03-06T07:32:18.277Z,76.08
2019-03-06T07:33:18.270Z,75.01
2019-03-06T07:34:18.260Z,74.36
2019-03-06T07:35:18.242Z,73.85
2019-03-06T07:36:18.310Z,72.78
2019-03-06T07:37:18.221Z,72.23
2019-03-06T07:38:18.215Z,71.30
2019-03-06T07:39:18.208Z,71.48
2019-03-06T07:40:18.196Z,71.17
2019-03-06T07:41:18.183Z,70.65
2019-03-06T07:42:18.177Z,70.21
2019-03-06T07:43:18.155Z,69.15
2019-03-06T07:44:18.153Z,69.04
2019-03-06T07:45:18.139Z,68.53
2019-03-06T07:46:18.131Z,68.50
2019-03-06T07:47:18.128Z,68.08
2019-03-06T07:48:18.103Z,68.29
2019-03-06T07:49:18.092Z,68.05
2019-03-06T07:50:18.086Z,68.37
2019-03-06T07:51:18.067Z,67.95
2019-03-06T07:52:18.094Z,68.10
2019-03-06T07:53:18.050Z,66.69
2019-03-06T07:54:18.035Z,67.00
2019-03-06T07:55:18.029Z,67.26
2019-03-06T07:56:18.020Z,68.50
2019-03-06T07:57:18.009Z,69.56
2019-03-06T07:58:18.012Z,70.07
2019-03-06T07:59:17.991Z,70.48
2019-03-06T08:00:17.975Z,71.14
2019-03-06T08:01:17.966Z,71.34
2019-03-06T08:02:17.953Z,70.72
2019-03-06T08:03:17.951Z,70.90
2019-03-06T08:04:17.942Z,70.38
2019-03-06T08:05:17.925Z,69.66
2019-03-06T08:06:17.907Z,69.42
2019-03-06T08:07:17.902Z,70.25
2019-03-06T08:08:17.891Z,69.73
2019-03-06T08:09:17.877Z,70.18
2019-03-06T08:10:17.894Z,69.76
2019-03-06T08:11:17.849Z,69.32
2019-03-06T08:12:17.843Z,68.80
2019-03-06T08:13:17.838Z,68.46
2019-03-06T08:14:22.209Z,67.17
2019-03-06T08:15:17.827Z,66.42
2019-03-06T08:16:17.821Z,66.83
2019-03-06T08:17:17.784Z,64.75
2019-03-06T08:18:17.773Z,65.06
2019-03-06T08:19:17.771Z,64.31
2019-03-06T08:20:17.775Z,63.90
2019-03-06T08:21:17.769Z,63.12
2019-03-06T08:22:17.739Z,62.37
2019-03-06T08:23:17.719Z,60.68
2019-03-06T08:24:17.709Z,59.83
2019-03-06T08:25:17.697Z,59.70
2019-03-06T08:26:17.702Z,58.89
2019-03-06T08:27:17.680Z,57.76
2019-03-06T08:28:17.670Z,58.04
2019-03-06T08:29:17.654Z,57.86
2019-03-06T08:30:17.649Z,58.68
2019-03-06T08:31:17.678Z,58.61
2019-03-06T08:32:17.631Z,59.91
2019-03-06T08:33:18.394Z,58.86
2019-03-06T08:34:17.605Z,57.60
2019-03-06T08:35:17.593Z,57.78
2019-03-06T08:36:17.579Z,56.53
2019-03-06T08:37:17.616Z,55.69
2019-03-06T08:38:17.567Z,56.07
2019-03-06T08:39:17.553Z,54.85
2019-03-06T08:40:17.538Z,54.97
2019-03-06T08:41:17.529Z,56.40
2019-03-06T08:42:17.577Z,58.14
2019-03-06T08:43:17.505Z,56.99
2019-03-06T08:44:17.491Z,56.53
2019-03-06T08:45:17.483Z,56.15
2019-03-06T08:46:17.472Z,57.50
2019-03-06T08:47:17.462Z,56.76
2019-03-06T08:48:17.460Z,55.79
2019-03-06T08:49:17.445Z,54.87
2019-03-06T08:50:17.425Z,56.12
2019-03-06T08:51:17.412Z,56.04
2019-03-06T08:52:17.404Z,55.13
2019-03-06T08:53:17.449Z,53.75
2019-03-06T08:54:17.391Z,52.40
2019-03-06T08:55:17.403Z,51.54
2019-03-06T08:56:17.357Z,51.81
2019-03-06T08:57:25.286Z,53.59
2019-03-06T08:58:17.340Z,55.89
2019-03-06T08:59:18.697Z,55.23
2019-03-06T09:00:17.317Z,56.58
2019-03-06T09:01:17.325Z,55.74
2019-03-06T09:02:17.297Z,55.66
2019-03-06T09:03:17.282Z,54.11
2019-03-06T09:04:17.288Z,54.08
2019-03-06T09:05:17.271Z,54.08
2019-03-06T09:06:25.803Z,53.09
2019-03-06T09:07:17.239Z,52.45
2019-03-06T09:08:17.239Z,53.06
2019-03-06T09:09:17.245Z,52.94
2019-03-06T09:10:17.210Z,53.55
2019-03-06T09:11:17.197Z,52.20
2019-03-06T09:12:17.183Z,52.37
2019-03-06T09:13:17.177Z,52.20
2019-03-06T09:14:17.161Z,52.22
2019-03-06T09:15:17.164Z,52.22
2019-03-06T09:16:17.143Z,52.30
2019-03-06T09:17:17.134Z,52.28
2019-03-06T09:18:17.123Z,52.45
2019-03-06T09:19:17.115Z,51.42
2019-03-06T09:20:17.106Z,49.84
2019-03-06T09:21:17.084Z,50.15
2019-03-06T09:22:17.077Z,49.64
2019-03-06T09:23:23.054Z,49.92
2019-03-06T09:24:18.062Z,49.21
2019-03-06T09:25:17.062Z,49.62
2019-03-06T09:26:17.037Z,49.01
2019-03-06T09:27:17.050Z,49.33
2019-03-06T09:28:17.013Z,49.76
2019-03-06T09:29:16.996Z,49.89
2019-03-06T09:30:16.986Z,51.34
2019-03-06T09:31:16.980Z,51.95
2019-03-06T09:32:16.971Z,52.37
2019-03-06T09:33:16.966Z,51.87
2019-03-06T09:34:16.948Z,52.61
2019-03-06T09:35:16.942Z,52.50
2019-03-06T09:36:18.989Z,52.81
2019-03-06T09:37:16.923Z,52.22
2019-03-06T09:38:16.908Z,52.66
2019-03-06T09:39:16.890Z,53.39
2019-03-06T09:40:16.882Z,53.19
2019-03-06T09:41:16.890Z,54.31
2019-03-06T09:42:18.474Z,54.94
2019-03-06T09:43:16.850Z,55.05
2019-03-06T09:44:16.842Z,55.48
2019-03-06T09:45:16.823Z,55.07
2019-03-06T09:46:16.818Z,55.79
2019-03-06T09:47:16.827Z,55.69
2019-03-06T09:48:16.796Z,56.30
2019-03-06T09:49:16.784Z,55.38
2019-03-06T09:50:16.771Z,55.71
2019-03-06T09:51:16.761Z,56.63
2019-03-06T09:52:16.757Z,56.56
2019-03-06T09:53:16.736Z,57.37
2019-03-06T09:54:16.726Z,56.63
2019-03-06T09:55:16.721Z,56.23
2019-03-06T09:56:16.713Z,57.34
2019-03-06T09:57:16.708Z,56.71
2019-03-06T09:58:16.711Z,56.68
2019-03-06T09:59:16.675Z,55.46
2019-03-06T10:00:16.668Z,56.04
2019-03-06T10:01:16.651Z,54.51
2019-03-06T10:02:16.643Z,55.53
2019-03-06T10:03:16.625Z,54.41
2019-03-06T10:04:16.624Z,53.59
2019-03-06T10:05:16.617Z,54.28
2019-03-06T10:06:16.595Z,54.49
2019-03-06T10:07:16.595Z,55.53
2019-03-06T10:08:16.572Z,54.28
2019-03-06T10:09:16.567Z,53.98
2019-03-06T10:10:16.551Z,52.35
2019-03-06T10:11:17.292Z,51.84
2019-03-06T10:12:16.541Z,51.94
2019-03-06T10:13:16.518Z,52.78
2019-03-06T10:14:16.514Z,51.35
2019-03-06T10:15:16.504Z,52.40
2019-03-06T10:16:16.484Z,52.50
2019-03-06T10:17:16.488Z,52.29
2019-03-06T10:18:16.476Z,52.73
2019-03-06T10:19:16.470Z,52.29
2019-03-06T10:20:24.905Z,52.81
2019-03-06T10:21:17.441Z,51.76
2019-03-06T10:22:16.424Z,51.76
2019-03-06T10:23:16.417Z,51.84
2019-03-06T10:24:16.426Z,52.48
2019-03-06T10:25:16.392Z,52.17
2019-03-06T10:26:16.381Z,51.53
2019-03-06T10:27:16.368Z,50.90
2019-03-06T10:28:16.361Z,49.73
2019-03-06T10:29:16.353Z,49.91
2019-03-06T10:30:18.621Z,49.61
2019-03-06T10:31:16.321Z,49.58
2019-03-06T10:32:16.309Z,49.28
2019-03-06T10:33:16.301Z,49.26
2019-03-06T10:34:16.295Z,48.85
2019-03-06T10:35:16.290Z,48.22
2019-03-06T10:36:16.281Z,49.23
2019-03-06T10:37:18.041Z,47.30
2019-03-06T10:38:16.841Z,46.57
2019-03-06T10:39:16.237Z,46.98
2019-03-06T10:40:16.227Z,45.58
2019-03-06T10:41:16.218Z,44.77
2019-03-06T10:42:16.215Z,44.99
2019-03-06T10:43:16.195Z,44.89
2019-03-06T10:44:16.184Z,45.68
2019-03-06T10:45:16.172Z,44.81
2019-03-06T10:46:16.180Z,44.30
2019-03-06T10:47:16.151Z,44.22
2019-03-06T10:48:16.134Z,43.90
2019-03-06T10:49:16.123Z,44.18
2019-03-06T10:50:16.117Z,44.67
2019-03-06T10:51:16.101Z,44.62
2019-03-06T10:52:16.107Z,44.22
2019-03-06T10:53:16.090Z,44.81
2019-03-06T10:54:16.071Z,43.99
2019-03-06T10:55:16.062Z,45.42
2019-03-06T10:56:16.054Z,45.01
2019-03-06T10:57:16.045Z,44.40
2019-03-06T10:58:16.029Z,43.89
2019-03-06T10:59:16.013Z,43.06
2019-03-06T11:00:16.009Z,43.98
2019-03-06T11:01:15.997Z,42.74
2019-03-06T11:02:15.990Z,42.46
2019-03-06T11:03:15.970Z,42.54
2019-03-06T11:04:15.963Z,42.29
2019-03-06T11:05:15.953Z,40.59
2019-03-06T11:06:15.936Z,41.71
2019-03-06T11:07:15.981Z,40.81
2019-03-06T11:08:15.919Z,40.94
2019-03-06T11:09:15.905Z,42.03
2019-03-06T11:10:23.409Z,41.02
2019-03-06T11:11:16.879Z,41.95
2019-03-06T11:12:15.876Z,41.85
2019-03-06T11:13:15.934Z,42.25
2019-03-06T11:14:15.848Z,43.65
2019-03-06T11:15:15.843Z,43.24
2019-03-06T11:16:17.984Z,41.95
2019-03-06T11:17:15.817Z,42.33
2019-03-06T11:18:16.496Z,42.33
2019-03-06T11:19:15.835Z,41.72
2019-03-06T11:20:15.784Z,41.03
2019-03-06T11:21:15.779Z,41.95
2019-03-06T11:22:15.762Z,41.99
2019-03-06T11:23:15.751Z,43.61
2019-03-06T11:24:15.746Z,43.20
2019-03-06T11:25:15.744Z,42.57
2019-03-06T11:26:15.725Z,42.47
2019-03-06T11:27:15.710Z,42.98
2019-03-06T11:28:15.702Z,41.88
2019-03-06T11:29:15.729Z,42.92
2019-03-06T11:30:15.675Z,42.31
2019-03-06T11:31:15.665Z,41.72
2019-03-06T11:32:15.658Z,42.96
2019-03-06T11:33:15.645Z,42.84
2019-03-06T11:34:15.637Z,42.86
2019-03-06T11:35:15.629Z,41.94
2019-03-06T11:36:15.613Z,42.02
2019-03-06T11:37:15.598Z,41.21
2019-03-06T11:38:15.588Z,40.50
2019-03-06T11:39:15.576Z,40.20
2019-03-06T11:40:15.579Z,40.81
2019-03-06T11:41:15.555Z,41.30
2019-03-06T11:42:15.549Z,40.69
2019-03-06T11:43:15.534Z,40.89
2019-03-06T11:44:15.527Z,41.30
2019-03-06T11:45:15.556Z,41.09
2019-03-06T11:46:15.506Z,41.70
2019-03-06T11:47:15.489Z,40.91
2019-03-06T11:48:15.481Z,41.03
2019-03-06T11:49:15.473Z,41.03
2019-03-06T11:50:15.461Z,41.64
2019-03-06T11:51:15.452Z,41.76
2019-03-06T11:52:15.436Z,42.39
2019-03-06T11:53:15.428Z,43.79
2019-03-06T11:54:15.419Z,44.12
2019-03-06T11:55:15.406Z,43.71
2019-03-06T11:56:15.397Z,44.20
2019-03-06T11:57:15.389Z,43.41
2019-03-06T11:58:15.368Z,43.91
2019-03-06T11:59:15.358Z,42.37
2019-03-06T12:00:15.354Z,42.57
2019-03-06T12:01:15.851Z,42.05
2019-03-06T12:02:15.329Z,41.52
2019-03-06T12:03:15.320Z,41.70
2019-03-06T12:04:15.306Z,40.97
2019-03-06T12:05:15.296Z,40.95
2019-03-06T12:06:15.280Z,41.14
2019-03-06T12:07:15.280Z,40.11
2019-03-06T12:08:15.264Z,38.46
2019-03-06T12:09:15.247Z,37.12
2019-03-06T12:10:15.236Z,37.28
2019-03-06T12:11:15.232Z,37.18
2019-03-06T12:12:15.226Z,36.15
2019-03-06T12:13:15.202Z,35.75
2019-03-06T12:14:15.192Z,36.72
2019-03-06T12:15:15.181Z,36.04
2019-03-06T12:16:15.170Z,36.35
2019-03-06T12:17:15.179Z,36.13
2019-03-06T12:18:15.154Z,36.66
2019-03-06T12:19:15.139Z,37.04
2019-03-06T12:20:15.131Z,36.79
2019-03-06T12:21:15.115Z,37.70
2019-03-06T12:22:15.149Z,38.31
2019-03-06T12:23:15.098Z,37.20
2019-03-06T12:24:15.086Z,37.21
2019-03-06T12:25:15.072Z,37.94
2019-03-06T12:26:15.066Z,38.24
2019-03-06T12:27:15.054Z,38.51
2019-03-06T12:28:15.076Z,38.61
2019-03-06T12:29:15.029Z,38.71
2019-03-06T12:30:15.014Z,38.39
2019-03-06T12:31:15.004Z,37.18
2019-03-06T12:32:14.999Z,36.96
2019-03-06T12:33:14.988Z,36.66
2019-03-06T12:34:14.985Z,36.55
2019-03-06T12:35:14.967Z,36.96
2019-03-06T12:36:14.949Z,36.64
2019-03-06T12:37:14.942Z,37.04
2019-03-06T12:38:14.937Z,36.93
2019-03-06T12:39:14.919Z,35.70
2019-03-06T12:40:15.000Z,36.62
2019-03-06T12:41:14.931Z,37.65
2019-03-06T12:42:15.124Z,37.45
2019-03-06T12:43:14.880Z,37.66
2019-03-06T12:44:14.873Z,37.75
2019-03-06T12:45:14.858Z,36.64
2019-03-06T12:46:23.019Z,36.86
2019-03-06T12:47:15.843Z,36.96
2019-03-06T12:48:14.821Z,37.28
2019-03-06T12:49:14.813Z,37.89
2019-03-06T12:50:14.798Z,38.57
2019-03-06T12:51:14.789Z,37.26
2019-03-06T12:52:14.786Z,37.24
2019-03-06T12:53:14.771Z,36.86